Time;durP1;ratioP1;P1;durP2;ratioP2;P2;SDS_P1;SDS_P2;PMS_P1;PMS_P2;Temp;Humidity;BMP_temperature;BMP_pressure;BME280_temperature;BME280_humidity;BME280_pressure;Samples;Min_cycle;Max_cycle;Signal;HPM_P1;HPM_P2
2023/04/17 00:13:36;;;;;;;15.00;10.60;;;;;;;12.53;82.09;100978.70;675607;1260;139248;-90
2023/04/17 00:28:39;;;;;;;15.30;8.10;;;;;;;12.55;82.28;100977.67;673366;1264;138986;-90
2023/04/17 00:43:42;;;;;;;19.50;10.70;;;;;;;12.54;82.25;100979.89;675180;1262;150109;-85
2023/04/17 00:58:47;;;;;;;16.70;9.60;;;;;;;12.51;82.12;100988.19;674685;1257;139122;-91
2023/04/17 01:13:51;;;;;;;17.30;9.80;;;;;;;12.48;82.24;100992.38;677457;1259;139421;-83
2023/04/17 01:28:56;;;;;;;16.30;10.00;;;;;;;12.46;82.21;100998.05;673194;1275;139160;-89
2023/04/17 01:44:00;;;;;;;16.80;10.90;;;;;;;12.35;82.43;101005.27;672420;1262;139150;-88
2023/04/17 01:59:04;;;;;;;20.30;11.40;;;;;;;12.26;82.55;101011.66;675563;1259;139526;-92
2023/04/17 02:14:08;;;;;;;21.10;12.90;;;;;;;12.24;82.80;101021.09;673037;1259;138535;-89
2023/04/17 02:29:11;;;;;;;19.50;10.60;;;;;;;12.21;83.02;101022.73;673838;1262;139077;-89
2023/04/17 02:44:14;;;;;;;20.90;11.00;;;;;;;12.18;83.31;101019.34;674429;1259;138715;-92
2023/04/17 02:59:18;;;;;;;25.00;13.10;;;;;;;12.15;83.45;101015.33;672773;1270;139447;-93
2023/04/17 03:14:21;;;;;;;20.70;12.20;;;;;;;12.09;83.63;101012.18;672346;1257;139379;-93
2023/04/17 03:29:24;;;;;;;21.50;12.20;;;;;;;12.04;83.83;101009.56;676079;1262;139163;-91
2023/04/17 03:44:29;;;;;;;23.50;11.90;;;;;;;11.94;84.73;101012.36;672582;1262;139286;-87
2023/04/17 03:59:33;;;;;;;22.00;13.10;;;;;;;11.99;84.43;101020.89;669867;1262;138656;-90
2023/04/17 04:14:36;;;;;;;24.00;15.00;;;;;;;11.89;83.86;101035.02;671722;1260;138506;-91
2023/04/17 04:29:47;;;;;;;28.60;16.10;;;;;;;11.79;84.70;101040.52;675587;1262;138542;-93
2023/04/17 04:44:54;;;;;;;54.70;26.50;;;;;;;11.88;84.51;101047.71;672339;1261;140021;-90
2023/04/17 04:59:58;;;;;;;38.90;26.30;;;;;;;11.91;84.58;101068.30;676572;1260;139239;-88
2023/04/17 05:15:09;;;;;;;37.80;20.70;;;;;;;11.75;84.18;101077.30;673728;1263;139137;-88
2023/04/17 05:30:14;;;;;;;50.10;27.60;;;;;;;12.00;83.97;101082.82;672369;1261;138726;-89
2023/04/17 05:45:19;;;;;;;36.90;18.70;;;;;;;12.35;83.30;101087.73;674923;1259;139343;-87
2023/04/17 06:00:24;;;;;;;28.10;14.80;;;;;;;12.79;82.70;101102.52;673289;1260;138428;-85
2023/04/17 06:15:33;;;;;;;14.30;9.30;;;;;;;13.07;81.17;101117.47;674740;1262;139858;-88
2023/04/17 06:30:37;;;;;;;12.40;7.90;;;;;;;13.67;79.21;101115.34;674010;1261;138907;-93
2023/04/17 06:45:41;;;;;;;12.60;5.70;;;;;;;14.18;77.10;101123.16;673578;1262;138994;-92
2023/04/17 07:00:45;;;;;;;8.10;4.80;;;;;;;14.37;72.64;101140.05;674251;1259;139693;-89
2023/04/17 07:15:55;;;;;;;7.30;4.60;;;;;;;14.64;69.66;101149.09;673622;1263;138564;-88
2023/04/17 07:30:59;;;;;;;12.20;5.20;;;;;;;15.20;69.25;101158.77;674479;1271;139196;-89
2023/04/17 07:46:02;;;;;;;7.90;5.10;;;;;;;15.81;69.00;101167.34;676960;1262;139063;-88
2023/04/17 08:01:07;;;;;;;10.40;6.20;;;;;;;16.62;69.84;101176.34;674764;1262;138724;-90
2023/04/17 08:16:10;;;;;;;8.60;5.70;;;;;;;16.96;69.06;101181.65;678726;1262;139252;-90
2023/04/17 08:31:13;;;;;;;8.30;5.20;;;;;;;17.18;67.52;101195.88;681212;1260;138784;-86
2023/04/17 08:46:20;;;;;;;8.00;5.30;;;;;;;17.00;66.34;101209.32;673771;1273;138941;-87
2023/04/17 09:01:23;;;;;;;13.90;7.50;;;;;;;16.79;65.63;101218.31;673767;1258;139461;-88
2023/04/17 09:16:27;;;;;;;8.80;6.20;;;;;;;17.02;66.11;101231.01;669485;1261;139648;-90
2023/04/17 09:31:33;;;;;;;17.50;10.60;;;;;;;17.78;64.96;101228.98;672556;1262;138013;-87
2023/04/17 09:46:41;;;;;;;12.00;6.40;;;;;;;18.43;64.04;101226.52;673522;1262;139086;-89
2023/04/17 10:01:44;;;;;;;11.50;6.60;;;;;;;19.37;62.75;101232.30;672127;1263;139552;-87
2023/04/17 10:16:49;;;;;;;10.70;7.10;;;;;;;19.52;60.83;101237.55;671656;1262;138305;-86
2023/04/17 10:32:07;;;;;;;8.80;6.80;;;;;;;18.54;62.13;101235.60;675544;1263;139468;-90
2023/04/17 10:47:14;;;;;;;14.30;8.50;;;;;;;17.75;63.04;101241.40;679893;1262;138790;-90
2023/04/17 11:02:32;;;;;;;15.30;10.00;;;;;;;17.17;63.64;101245.82;677685;1262;139562;-90
2023/04/17 11:17:44;;;;;;;21.50;10.30;;;;;;;16.76;64.42;101250.08;673041;1262;140636;-90
2023/04/17 11:32:47;;;;;;;32.00;16.30;;;;;;;16.56;64.91;101258.58;672953;1263;139470;-89
2023/04/17 11:47:51;;;;;;;49.30;17.50;;;;;;;16.28;65.50;101262.33;673201;1262;140062;-84
2023/04/17 12:02:56;;;;;;;33.40;15.20;;;;;;;15.63;66.61;101271.40;673345;1262;140404;-91
2023/04/17 12:18:04;;;;;;;21.10;10.30;;;;;;;15.43;68.07;101278.89;671258;1262;139984;-91
2023/04/17 12:33:08;;;;;;;57.70;11.90;;;;;;;15.42;69.19;101284.62;676335;1262;139125;-89
2023/04/17 12:48:13;;;;;;;103.30;44.70;;;;;;;15.92;69.97;101286.71;673921;1263;232651;-84
2023/04/17 13:03:16;;;;;;;100.30;52.90;;;;;;;15.94;68.50;101288.31;673781;1262;139499;-86
2023/04/17 13:18:19;;;;;;;28.60;14.60;;;;;;;16.26;68.72;101297.27;678719;1262;139225;-85
2023/04/17 13:33:22;;;;;;;33.60;15.90;;;;;;;16.07;68.44;101297.69;677298;1273;139046;-88
2023/04/17 13:48:26;;;;;;;37.70;16.80;;;;;;;15.83;68.19;101299.77;677922;1263;140182;-88
2023/04/17 14:03:29;;;;;;;50.80;24.30;;;;;;;15.73;68.54;101299.11;669894;1264;139739;-86
2023/04/17 14:18:33;;;;;;;29.80;14.20;;;;;;;15.46;69.69;101303.87;674226;1273;140662;-86
2023/04/17 14:33:36;;;;;;;20.90;11.90;;;;;;;15.65;70.32;101302.10;673466;1276;139097;-89
2023/04/17 14:50:49;;;;;;;22.40;11.60;;;;;;;15.63;70.01;101300.88;652807;1301;545053;-88
2023/04/17 15:05:53;;;;;;;26.10;12.40;;;;;;;15.61;70.11;101295.66;674550;1273;139074;-89
2023/04/17 15:20:57;;;;;;;27.30;16.10;;;;;;;15.60;70.53;101295.17;676550;1273;139416;-91
2023/04/17 15:36:00;;;;;;;54.80;33.00;;;;;;;15.64;70.71;101303.11;677657;1272;139457;-90
2023/04/17 15:51:03;;;;;;;30.30;15.70;;;;;;;15.58;70.94;101299.28;676109;1272;139017;-88
2023/04/17 16:06:07;;;;;;;65.70;33.50;;;;;;;15.40;71.38;101308.97;675107;1272;138646;-88
2023/04/17 16:21:10;;;;;;;24.10;15.30;;;;;;;15.24;71.33;101299.32;675037;1272;139046;-88
2023/04/17 16:36:13;;;;;;;35.30;22.30;;;;;;;15.23;71.35;101290.48;672440;1288;138896;-87
2023/04/17 16:51:19;;;;;;;21.70;13.70;;;;;;;15.05;71.30;101299.48;676018;1273;138786;-88
2023/04/17 17:06:22;;;;;;;68.80;38.00;;;;;;;14.91;71.80;101321.56;676501;1273;138895;-87
2023/04/17 17:21:26;;;;;;;40.20;18.20;;;;;;;14.57;72.35;101333.15;675107;1270;139096;-86
2023/04/17 17:36:30;;;;;;;61.40;28.90;;;;;;;14.26;73.08;101342.90;670780;1274;139261;-87
2023/04/17 17:51:33;;;;;;;40.30;21.20;;;;;;;14.26;73.25;101356.45;671439;1270;139268;-86
2023/04/17 18:06:36;;;;;;;91.10;44.90;;;;;;;14.07;73.43;101357.76;674404;1273;139485;-85
2023/04/17 18:21:40;;;;;;;33.70;16.90;;;;;;;13.94;73.57;101365.68;676620;1267;139160;-90
2023/04/17 18:36:43;;;;;;;35.70;19.20;;;;;;;13.82;73.64;101369.48;670017;1266;139313;-88
2023/04/17 18:51:47;;;;;;;46.60;24.40;;;;;;;13.60;73.45;101378.86;676260;1267;139762;-87
2023/04/17 19:06:50;;;;;;;31.90;16.60;;;;;;;13.43;73.96;101383.67;674774;1265;139632;-90
2023/04/17 19:21:54;;;;;;;46.00;22.30;;;;;;;13.41;74.34;101388.54;677244;1261;139790;-85
2023/04/17 19:36:57;;;;;;;28.90;16.20;;;;;;;13.46;74.80;101390.77;681016;1262;139475;-86
2023/04/17 19:52:00;;;;;;;25.50;12.80;;;;;;;13.41;75.24;101395.89;678288;1267;139245;-90
2023/04/17 20:07:04;;;;;;;49.00;21.40;;;;;;;13.32;75.68;101391.70;678210;1269;140944;-86
2023/04/17 20:22:08;;;;;;;39.30;20.60;;;;;;;13.32;75.85;101395.21;679141;1267;139112;-87
2023/04/17 20:37:11;;;;;;;30.90;15.20;;;;;;;13.22;76.17;101392.83;678741;1265;140070;-86
2023/04/17 20:52:14;;;;;;;18.80;11.60;;;;;;;13.14;76.27;101394.21;675578;1266;140610;-86
2023/04/17 21:07:18;;;;;;;19.50;12.70;;;;;;;13.16;76.39;101399.84;677990;1267;138547;-87
2023/04/17 21:22:21;;;;;;;43.10;18.60;;;;;;;13.09;76.62;101401.98;681075;1262;138810;-89
2023/04/17 21:37:24;;;;;;;47.20;18.00;;;;;;;12.98;77.30;101420.05;678704;1266;141042;-87
2023/04/17 21:52:27;;;;;;;31.30;16.00;;;;;;;12.92;77.87;101426.68;676482;1266;138766;-88
2023/04/17 22:07:30;;;;;;;30.40;16.50;;;;;;;12.83;78.51;101426.34;671862;1262;138632;-84
2023/04/17 22:22:46;;;;;;;36.20;18.20;;;;;;;12.89;78.86;101426.59;669240;1263;139844;-86
2023/04/17 22:37:49;;;;;;;38.10;17.30;;;;;;;12.94;78.89;101432.52;669437;1260;139089;-88
2023/04/17 22:52:52;;;;;;;21.00;12.90;;;;;;;12.88;79.00;101433.70;673260;1263;139289;-85
2023/04/17 23:07:55;;;;;;;23.00;12.70;;;;;;;12.89;78.71;101432.44;674559;1262;141944;-90
2023/04/17 23:22:58;;;;;;;22.20;12.60;;;;;;;12.76;78.28;101435.91;675705;1262;139349;-89
2023/04/17 23:38:02;;;;;;;16.60;11.00;;;;;;;12.60;78.79;101431.02;675547;1261;140809;-88
2023/04/17 23:53:05;;;;;;;15.80;11.30;;;;;;;12.55;78.70;101424.39;674183;1263;139598;-87
